createdAt,value
2023-04-26T00:00:49.718Z,295.10
2023-04-26T00:01:49.670Z,310.82
2023-04-26T00:02:49.797Z,336.41
2023-04-26T00:03:49.881Z,356.98
2023-04-26T00:04:49.856Z,372.43
2023-04-26T00:05:49.687Z,399.48
2023-04-26T00:06:49.658Z,422.61
2023-04-26T00:07:49.631Z,445.56
2023-04-26T00:08:49.885Z,473.51
2023-04-26T00:09:49.585Z,507.51
2023-04-26T00:10:49.630Z,530.20
2023-04-26T00:11:49.574Z,535.32
2023-04-26T00:12:49.548Z,525.17
2023-04-26T00:13:49.567Z,516.59
2023-04-26T00:14:49.638Z,504.05
2023-04-26T00:15:49.534Z,484.92
2023-04-26T00:16:49.597Z,463.27
2023-04-26T00:17:49.595Z,448.88
2023-04-26T00:18:49.551Z,445.56
2023-04-26T00:19:49.491Z,444.67
2023-04-26T00:20:49.527Z,446.46
2023-04-26T00:21:49.477Z,447.06
2023-04-26T00:22:49.472Z,447.36
2023-04-26T00:23:49.465Z,430.83
2023-04-26T00:24:49.457Z,418.87
2023-04-26T00:25:49.466Z,408.57
2023-04-26T00:26:49.467Z,403.36
2023-04-26T00:27:49.420Z,399.24
2023-04-26T00:28:49.485Z,382.68
2023-04-26T00:29:49.423Z,368.24
2023-04-26T00:30:49.391Z,360.13
2023-04-26T00:31:49.439Z,358.55
2023-04-26T00:32:49.437Z,355.43
2023-04-26T00:33:49.389Z,358.94
2023-04-26T00:34:49.343Z,353.51
2023-04-26T00:35:49.337Z,350.10
2023-04-26T00:36:49.346Z,350.85
2023-04-26T00:37:49.311Z,355.04
2023-04-26T00:38:49.461Z,365.77
2023-04-26T00:39:49.290Z,392.86
2023-04-26T00:40:49.288Z,413.66
2023-04-26T00:41:49.302Z,419.14
2023-04-26T00:42:49.298Z,422.34
2023-04-26T00:43:49.247Z,419.14
2023-04-26T00:44:49.258Z,411.86
2023-04-26T00:45:49.307Z,402.14
2023-04-26T00:46:49.278Z,400.20
2023-04-26T00:47:49.237Z,395.44
2023-04-26T00:48:49.243Z,384.23
2023-04-26T00:49:49.225Z,367.00
2023-04-26T00:50:49.217Z,350.47
2023-04-26T00:51:49.176Z,335.03
2023-04-26T00:52:49.163Z,318.39
2023-04-26T00:53:49.178Z,303.88
2023-04-26T00:54:49.149Z,299.43
2023-04-26T00:55:49.211Z,296.44
2023-04-26T00:56:49.148Z,297.79
2023-04-26T00:57:49.138Z,303.04
2023-04-26T00:58:49.185Z,307.02
2023-04-26T00:59:49.117Z,303.88
2023-04-26T01:02:06.724Z,212.30
2023-04-26T01:03:07.842Z,242.91
2023-04-26T01:04:07.690Z,256.85
2023-04-26T01:05:07.642Z,261.15
2023-04-26T01:06:07.630Z,258.67
2023-04-26T01:07:07.633Z,253.07
2023-04-26T01:08:07.694Z,245.46
2023-04-26T01:09:07.603Z,238.83
2023-04-26T01:10:07.590Z,232.54
2023-04-26T01:11:07.580Z,222.42
2023-04-26T01:12:07.571Z,214.25
2023-04-26T01:13:07.570Z,207.06
2023-04-26T01:14:07.548Z,198.87
2023-04-26T01:15:07.576Z,197.67
2023-04-26T01:16:07.547Z,193.46
2023-04-26T01:17:07.590Z,191.42
2023-04-26T01:18:07.564Z,189.97
2023-04-26T01:19:07.504Z,190.30
2023-04-26T01:20:07.506Z,189.86
2023-04-26T01:21:07.491Z,191.20
2023-04-26T01:22:07.470Z,192.43
2023-04-26T01:23:07.489Z,194.49
2023-04-26T01:24:07.458Z,203.58
2023-04-26T01:25:07.460Z,224.87
2023-04-26T01:26:07.452Z,244.55
2023-04-26T01:27:07.463Z,260.74
2023-04-26T01:28:07.447Z,280.42
2023-04-26T01:29:07.400Z,298.88
2023-04-26T01:30:07.434Z,327.31
2023-04-26T01:31:07.446Z,354.27
2023-04-26T01:32:07.428Z,376.29
2023-04-26T01:33:07.383Z,396.62
2023-04-26T01:34:07.351Z,408.57
2023-04-26T01:35:07.472Z,417.56
2023-04-26T01:36:07.321Z,422.87
2023-04-26T01:37:07.349Z,422.87
2023-04-26T01:38:07.309Z,423.95
2023-04-26T01:39:07.298Z,420.46
2023-04-26T01:40:07.284Z,417.82
2023-04-26T01:41:07.298Z,409.07
2023-04-26T01:42:07.292Z,396.38
2023-04-26T01:43:07.258Z,384.23
2023-04-26T01:44:07.276Z,371.59
2023-04-26T01:45:07.278Z,362.52
2023-04-26T01:46:07.251Z,350.85
2023-04-26T01:47:07.226Z,335.72
2023-04-26T01:48:07.259Z,325.03
2023-04-26T01:49:07.206Z,316.23
2023-04-26T01:50:07.221Z,311.11
2023-04-26T01:51:07.186Z,305.30
2023-04-26T01:52:07.173Z,294.57
2023-04-26T01:53:07.170Z,281.63
2023-04-26T01:54:07.154Z,274.30
2023-04-26T01:55:07.165Z,266.04
2023-04-26T01:56:07.145Z,262.41
2023-04-26T01:57:07.294Z,259.29
2023-04-26T01:58:07.109Z,254.84
2023-04-26T01:59:07.112Z,249.97
2023-04-26T02:00:07.102Z,241.83
2023-04-26T02:01:07.092Z,237.61
2023-04-26T02:02:07.197Z,231.39
2023-04-26T02:03:07.149Z,225.49
2023-04-26T02:04:07.076Z,218.84
2023-04-26T02:05:07.098Z,214.68
2023-04-26T02:06:07.058Z,215.10
2023-04-26T02:07:07.030Z,217.53
2023-04-26T02:08:07.029Z,216.67
2023-04-26T02:09:07.055Z,213.27
2023-04-26T02:10:07.064Z,212.86
2023-04-26T02:11:07.065Z,211.21
2023-04-26T02:12:06.971Z,208.38
2023-04-26T02:13:06.986Z,208.78
2023-04-26T02:14:06.984Z,206.28
2023-04-26T02:15:06.982Z,205.37
2023-04-26T02:16:06.981Z,202.32
2023-04-26T02:17:06.928Z,198.27
2023-04-26T02:18:07.013Z,194.26
2023-04-26T02:19:06.911Z,193.00
2023-04-26T02:20:06.925Z,190.41
2023-04-26T02:21:06.907Z,186.82
2023-04-26T02:22:06.902Z,184.93
2023-04-26T02:23:06.912Z,181.89
2023-04-26T02:24:06.860Z,179.34
2023-04-26T02:25:06.867Z,177.62
2023-04-26T02:26:06.855Z,177.24
2023-04-26T02:27:06.865Z,178.19
2023-04-26T02:28:06.856Z,177.81
2023-04-26T02:29:07.005Z,178.19
2023-04-26T02:30:06.827Z,179.34
2023-04-26T02:31:06.837Z,178.57
2023-04-26T02:32:06.803Z,177.05
2023-04-26T02:33:06.825Z,176.11
2023-04-26T02:34:06.823Z,175.37
2023-04-26T02:35:06.798Z,175.74
2023-04-26T02:36:06.737Z,174.27
2023-04-26T02:37:06.741Z,174.27
2023-04-26T02:38:06.728Z,174.27
2023-04-26T02:39:06.742Z,173.54
2023-04-26T02:40:06.716Z,171.57
2023-04-26T02:41:06.720Z,170.51
2023-04-26T02:42:06.686Z,170.16
2023-04-26T02:43:06.697Z,171.21
2023-04-26T02:44:06.663Z,172.10
2023-04-26T02:45:06.691Z,172.28
2023-04-26T02:46:06.658Z,172.10
2023-04-26T02:47:06.730Z,170.86
2023-04-26T02:48:06.751Z,168.78
2023-04-26T02:49:06.641Z,170.69
2023-04-26T02:50:06.598Z,169.64
2023-04-26T02:51:06.622Z,168.78
2023-04-26T02:52:06.604Z,169.64
2023-04-26T02:53:06.577Z,169.64
2023-04-26T02:54:07.129Z,170.86
2023-04-26T02:55:06.569Z,171.21
2023-04-26T02:56:06.563Z,173.36
2023-04-26T02:57:06.550Z,174.63
2023-04-26T02:58:06.535Z,176.30
2023-04-26T02:59:06.545Z,179.34
2023-04-26T03:00:06.513Z,183.09
2023-04-26T03:01:06.511Z,183.30
2023-04-26T03:02:06.522Z,185.75
2023-04-26T03:03:06.704Z,185.76
2023-04-26T03:04:06.589Z,185.34
2023-04-26T03:05:06.477Z,187.15
2023-04-26T03:06:06.460Z,188.01
2023-04-26T03:07:06.451Z,185.75
2023-04-26T03:08:06.441Z,185.34
2023-04-26T03:09:06.544Z,185.13
2023-04-26T03:10:06.417Z,184.71
2023-04-26T03:11:06.401Z,185.75
2023-04-26T03:12:06.389Z,185.45
2023-04-26T03:13:06.377Z,187.36
2023-04-26T03:14:06.402Z,188.44
2023-04-26T03:15:06.377Z,190.64
2023-04-26T03:16:06.405Z,192.43
2023-04-26T03:17:06.351Z,192.89
2023-04-26T03:18:06.406Z,193.46
2023-04-26T03:19:06.329Z,194.61
2023-04-26T03:20:06.325Z,197.67
2023-04-26T03:21:06.319Z,198.99
2023-04-26T03:22:06.298Z,198.99
2023-04-26T03:23:06.312Z,197.43
2023-04-26T03:24:06.326Z,197.91
2023-04-26T03:25:06.277Z,197.91
2023-04-26T03:26:06.299Z,197.19
2023-04-26T03:27:06.249Z,200.83
2023-04-26T03:28:06.235Z,206.15
2023-04-26T03:29:06.229Z,212.03
2023-04-26T03:30:06.230Z,214.68
2023-04-26T03:31:06.245Z,214.82
2023-04-26T03:32:06.262Z,215.67
2023-04-26T03:33:06.244Z,216.38
2023-04-26T03:34:06.167Z,219.73
2023-04-26T03:35:06.124Z,221.36
2023-04-26T03:36:06.154Z,217.97
2023-04-26T03:37:06.153Z,214.11
2023-04-26T03:38:06.147Z,213.55
2023-04-26T03:39:06.159Z,211.76
2023-04-26T03:40:06.085Z,208.25
2023-04-26T03:41:06.128Z,204.73
2023-04-26T03:42:06.129Z,204.21
2023-04-26T03:43:06.084Z,203.71
2023-04-26T03:44:06.036Z,201.57
2023-04-26T03:45:06.035Z,198.99
2023-04-26T03:46:06.229Z,197.07
2023-04-26T03:47:06.007Z,196.36
2023-04-26T03:48:06.048Z,200.58
2023-04-26T03:49:05.996Z,203.32
2023-04-26T03:50:06.018Z,203.83
2023-04-26T03:51:05.981Z,203.83
2023-04-26T03:52:06.028Z,203.83
2023-04-26T03:53:05.958Z,203.58
2023-04-26T03:54:05.948Z,204.21
2023-04-26T03:55:05.929Z,204.85
2023-04-26T03:56:05.918Z,207.85
2023-04-26T03:57:05.926Z,206.93
2023-04-26T03:58:05.948Z,203.83
2023-04-26T03:59:05.885Z,200.09
2023-04-26T04:00:05.909Z,195.31
2023-04-26T04:01:05.887Z,190.64
2023-04-26T04:02:05.899Z,186.29
2023-04-26T04:03:06.071Z,183.30
2023-04-26T04:04:06.014Z,182.29
2023-04-26T04:05:05.991Z,181.30
2023-04-26T04:06:05.803Z,180.90
2023-04-26T04:07:05.801Z,175.93
2023-04-26T04:08:05.824Z,173.90
2023-04-26T04:09:05.799Z,175.55
2023-04-26T04:10:05.834Z,184.52
2023-04-26T04:11:05.760Z,189.97
2023-04-26T04:12:05.747Z,193.12
2023-04-26T04:13:05.745Z,191.20
2023-04-26T04:14:05.755Z,190.19
2023-04-26T04:15:05.739Z,189.64
2023-04-26T04:16:05.783Z,187.36
2023-04-26T04:17:05.701Z,187.79
2023-04-26T04:18:05.880Z,185.96
2023-04-26T04:19:05.683Z,180.31
2023-04-26T04:20:05.689Z,175.55
2023-04-26T04:21:05.669Z,171.39
2023-04-26T04:22:05.656Z,167.42
2023-04-26T04:23:05.661Z,161.72
2023-04-26T04:24:05.643Z,154.94
2023-04-26T04:25:05.632Z,147.65
2023-04-26T04:26:05.606Z,142.83
2023-04-26T04:27:05.612Z,137.17
2023-04-26T04:28:05.610Z,132.05
2023-04-26T04:29:05.613Z,128.28
2023-04-26T04:30:05.582Z,124.16
2023-04-26T04:31:05.612Z,120.91
2023-04-26T04:32:05.573Z,117.49
2023-04-26T04:33:05.748Z,114.18
2023-04-26T04:34:05.545Z,111.65
2023-04-26T04:35:05.612Z,109.02
2023-04-26T04:36:05.532Z,107.88
2023-04-26T04:37:05.513Z,106.84
2023-04-26T04:38:05.527Z,105.56
2023-04-26T04:39:05.517Z,103.32
2023-04-26T04:40:05.488Z,102.43
2023-04-26T04:41:05.479Z,101.12
2023-04-26T04:42:05.458Z,99.55
2023-04-26T04:43:05.470Z,97.97
2023-04-26T04:44:05.460Z,97.51
2023-04-26T04:45:05.427Z,98.31
2023-04-26T04:46:05.466Z,99.37
2023-04-26T04:47:05.403Z,101.00
2023-04-26T04:48:05.477Z,103.45
2023-04-26T04:49:05.389Z,106.23
2023-04-26T04:50:05.405Z,109.02
2023-04-26T04:51:05.372Z,111.35
2023-04-26T04:52:05.377Z,111.65
2023-04-26T04:53:05.349Z,112.25
2023-04-26T04:54:05.364Z,111.88
2023-04-26T04:55:05.390Z,113.33
2023-04-26T04:56:05.333Z,113.64
2023-04-26T04:57:05.331Z,115.21
2023-04-26T04:58:05.305Z,116.18
2023-04-26T04:59:05.303Z,117.32
2023-04-26T05:00:05.283Z,117.24
2023-04-26T05:01:05.334Z,117.57
2023-04-26T05:02:05.324Z,117.16
2023-04-26T05:03:05.481Z,115.61
2023-04-26T05:04:05.430Z,113.79
2023-04-26T05:05:05.455Z,110.98
2023-04-26T05:06:05.228Z,108.31
2023-04-26T05:07:05.222Z,107.47
2023-04-26T05:08:05.227Z,108.17
2023-04-26T05:09:05.210Z,112.25
2023-04-26T05:10:05.196Z,112.03
2023-04-26T05:11:05.231Z,111.20
2023-04-26T05:12:05.185Z,111.28
2023-04-26T05:13:05.163Z,110.91
2023-04-26T05:14:05.162Z,111.65
2023-04-26T05:15:05.152Z,110.61
2023-04-26T05:16:05.204Z,109.52
2023-04-26T05:17:05.126Z,110.17
2023-04-26T05:18:05.147Z,110.46
2023-04-26T05:19:07.182Z,111.73
2023-04-26T05:20:05.092Z,111.80
2023-04-26T05:21:05.220Z,110.68
2023-04-26T05:22:05.088Z,110.46
2023-04-26T05:23:05.064Z,107.61
2023-04-26T05:24:05.067Z,106.09
2023-04-26T05:25:05.088Z,105.29
2023-04-26T05:26:05.089Z,105.15
2023-04-26T05:27:05.028Z,105.76
2023-04-26T05:28:05.037Z,107.05
2023-04-26T05:29:05.008Z,108.66
2023-04-26T05:30:04.998Z,111.58
2023-04-26T05:31:04.980Z,119.26
2023-04-26T05:32:05.117Z,126.14
2023-04-26T05:33:05.126Z,137.74
2023-04-26T05:34:04.974Z,147.12
2023-04-26T05:35:04.953Z,161.72
2023-04-26T05:36:04.963Z,176.11
2023-04-26T05:37:04.932Z,185.66
2023-04-26T05:38:04.934Z,207.45
2023-04-26T05:39:04.919Z,232.21
2023-04-26T05:40:04.899Z,245.65
2023-04-26T05:41:04.938Z,258.06
2023-04-26T05:42:04.895Z,269.11
2023-04-26T05:43:04.870Z,282.36
2023-04-26T05:44:04.853Z,295.37
2023-04-26T05:45:04.854Z,302.20
2023-04-26T05:46:04.939Z,319.63
2023-04-26T05:47:04.848Z,338.15
2023-04-26T05:48:04.887Z,364.54
2023-04-26T05:49:04.819Z,406.32
2023-04-26T05:50:04.824Z,445.56
2023-04-26T05:51:04.799Z,477.60
2023-04-26T05:52:04.799Z,517.80
2023-04-26T05:53:04.840Z,547.68
2023-04-26T05:54:04.787Z,549.04
2023-04-26T05:55:04.788Z,546.78
2023-04-26T05:56:04.744Z,554.54
2023-04-26T05:57:04.806Z,571.22
2023-04-26T05:58:04.722Z,583.77
2023-04-26T05:59:04.729Z,582.24
2023-04-26T06:00:04.772Z,570.73
2023-04-26T06:01:04.710Z,566.36
2023-04-26T06:02:04.714Z,560.62
2023-04-26T06:03:04.841Z,559.68
2023-04-26T06:04:05.029Z,569.27
2023-04-26T06:05:04.865Z,590.00
2023-04-26T06:06:04.675Z,613.42
2023-04-26T06:07:04.628Z,630.90
2023-04-26T06:08:04.640Z,659.72
2023-04-26T06:09:04.611Z,682.77
2023-04-26T06:10:04.623Z,691.30
2023-04-26T06:11:04.762Z,703.74
2023-04-26T06:12:04.643Z,754.40
2023-04-26T06:13:04.569Z,790.72
2023-04-26T06:14:04.734Z,804.11
2023-04-26T06:15:04.555Z,810.97
2023-04-26T06:16:04.556Z,819.97
2023-04-26T06:17:04.578Z,849.30
2023-04-26T06:18:04.586Z,950.68
2023-04-26T06:19:04.540Z,1126.16
2023-04-26T06:20:04.524Z,1261.86
2023-04-26T06:21:04.510Z,1332.67
2023-04-26T06:22:04.506Z,1359.92
2023-04-26T06:23:04.484Z,1416.40
2023-04-26T06:24:04.474Z,1459.93
2023-04-26T06:25:04.448Z,1471.24
2023-04-26T06:26:04.441Z,1447.22
2023-04-26T06:27:04.460Z,1487.69
2023-04-26T06:28:04.457Z,1551.02
2023-04-26T06:29:04.408Z,1559.20
2023-04-26T06:30:04.425Z,1573.96
2023-04-26T06:31:04.437Z,1532.26
2023-04-26T06:32:04.383Z,1494.38
2023-04-26T06:33:04.481Z,1513.08
2023-04-26T06:34:04.390Z,1502.82
2023-04-26T06:35:04.353Z,1612.12
2023-04-26T06:36:04.348Z,1651.15
2023-04-26T06:37:04.355Z,1641.97
2023-04-26T06:38:04.329Z,1647.06
2023-04-26T06:39:04.355Z,1719.46
2023-04-26T06:40:04.306Z,1711.71
2023-04-26T06:41:04.311Z,1706.22
2023-04-26T06:42:04.314Z,1793.66
2023-04-26T06:43:04.311Z,1912.29
2023-04-26T06:44:04.732Z,1890.55
2023-04-26T06:45:04.250Z,1865.36
2023-04-26T06:46:04.278Z,1971.83
2023-04-26T06:47:04.264Z,2028.98
2023-04-26T06:48:04.335Z,2012.10
2023-04-26T06:49:04.211Z,2057.23
2023-04-26T06:50:04.254Z,2225.94
2023-04-26T06:51:04.185Z,2341.55
2023-04-26T06:52:04.232Z,2422.59
2023-04-26T06:53:04.231Z,2662.66
2023-04-26T06:54:04.169Z,2875.68
2023-04-26T06:55:04.165Z,2965.44
2023-04-26T06:56:04.220Z,2955.55
2023-04-26T06:57:04.145Z,2972.07
2023-04-26T06:58:04.133Z,3038.26
2023-04-26T06:59:04.121Z,3064.52
2023-04-26T07:00:04.141Z,3036.53
2023-04-26T07:01:04.101Z,2949.00
2023-04-26T07:02:04.225Z,2900.76
2023-04-26T07:03:04.234Z,2885.03
2023-04-26T07:04:04.260Z,2949.00
2023-04-26T07:05:04.161Z,3027.89
2023-04-26T07:06:04.072Z,3183.72
2023-04-26T07:07:04.088Z,3283.95
2023-04-26T07:08:04.032Z,3261.80
2023-04-26T07:09:04.010Z,3259.80
2023-04-26T07:10:04.023Z,3520.85
2023-04-26T07:11:04.011Z,3275.86
2023-04-26T07:12:04.020Z,3819.09
2023-04-26T07:13:04.007Z,4086.02
2023-04-26T07:14:03.986Z,4252.60
2023-04-26T07:15:03.966Z,4297.25
2023-04-26T07:16:04.011Z,4279.97
2023-04-26T07:17:03.957Z,4367.82
2023-04-26T07:18:03.985Z,4349.96
2023-04-26T07:19:03.935Z,4269.66
2023-04-26T07:20:03.932Z,4566.52
2023-04-26T07:21:03.900Z,4916.82
2023-04-26T07:22:03.887Z,4921.37
2023-04-26T07:23:03.907Z,4687.23
2023-04-26T07:24:03.906Z,4451.88
2023-04-26T07:25:03.862Z,4279.97
2023-04-26T07:26:03.846Z,4130.43
2023-04-26T07:27:03.836Z,4222.22
2023-04-26T07:28:03.824Z,4175.82
2023-04-26T07:29:03.809Z,3967.19
2023-04-26T07:30:03.840Z,3725.49
2023-04-26T07:31:03.834Z,3707.32
2023-04-26T07:32:03.811Z,3754.41
2023-04-26T07:33:03.895Z,3786.48
2023-04-26T07:34:03.761Z,3751.76
2023-04-26T07:35:03.752Z,3926.20
2023-04-26T07:36:03.754Z,4222.22
2023-04-26T07:37:03.779Z,4474.35
2023-04-26T07:38:03.731Z,4894.20
2023-04-26T07:39:03.734Z,4903.23
2023-04-26T07:40:03.726Z,4894.20
2023-04-26T07:41:03.720Z,4939.65
2023-04-26T07:42:03.692Z,5033.11
2023-04-26T07:43:03.690Z,5272.55
2023-04-26T07:44:03.677Z,5215.69
2023-04-26T07:45:03.650Z,5611.81
2023-04-26T07:46:03.758Z,5957.45
2023-04-26T07:47:03.654Z,5738.94
2023-04-26T07:48:03.706Z,5871.96
2023-04-26T07:49:03.623Z,6417.37
2023-04-26T07:50:03.624Z,6211.33
2023-04-26T07:51:03.592Z,6189.65
2023-04-26T07:52:03.609Z,5964.12
2023-04-26T07:53:03.587Z,5641.57
2023-04-26T07:54:03.574Z,5256.92
2023-04-26T07:55:03.611Z,5000.00
2023-04-26T07:56:03.544Z,5076.33
2023-04-26T07:57:03.524Z,5241.38
2023-04-26T07:58:03.520Z,5037.88
2023-04-26T07:59:03.514Z,4784.17
2023-04-26T08:00:03.541Z,4574.38
2023-04-26T08:01:03.497Z,4466.83
2023-04-26T08:02:03.656Z,4286.87
2023-04-26T08:03:03.672Z,4024.21
2023-04-26T08:04:03.750Z,3920.41
2023-04-26T08:05:03.581Z,3843.93
2023-04-26T08:06:03.727Z,3800.00
2023-04-26T08:07:03.457Z,3800.00
2023-04-26T08:08:03.468Z,3880.38
2023-04-26T08:09:03.471Z,3897.44
2023-04-26T08:10:03.424Z,4018.13
2023-04-26T08:11:03.383Z,4030.30
2023-04-26T08:12:03.437Z,4175.82
2023-04-26T08:13:03.555Z,4293.79
2023-04-26T08:14:03.415Z,4459.35
2023-04-26T08:15:03.388Z,4516.13
2023-04-26T08:16:03.408Z,4519.97
2023-04-26T08:17:03.362Z,4703.80
2023-04-26T08:18:03.370Z,4849.59
2023-04-26T08:19:03.375Z,5135.13
2023-04-26T08:20:03.321Z,4916.82
2023-04-26T08:21:03.281Z,4814.48
2023-04-26T08:22:03.277Z,4944.24
2023-04-26T08:23:03.281Z,5037.88
2023-04-26T08:24:03.259Z,5076.33
2023-04-26T08:25:03.254Z,5220.80
2023-04-26T08:26:03.239Z,5507.25
2023-04-26T08:27:03.222Z,5776.33
2023-04-26T08:28:03.228Z,6233.16
2023-04-26T08:29:03.219Z,6425.12
2023-04-26T08:30:03.222Z,6584.16
2023-04-26T08:31:03.217Z,6670.85
2023-04-26T08:32:03.211Z,7004.61
2023-04-26T08:33:03.233Z,7498.24
2023-04-26T08:34:03.180Z,7732.56
2023-04-26T08:35:03.170Z,8299.53
2023-04-26T08:36:03.174Z,8364.78
2023-04-26T08:37:03.159Z,8030.19
2023-04-26T08:38:03.132Z,7503.53
2023-04-26T08:39:03.124Z,7046.36
2023-04-26T08:40:03.123Z,6811.78
2023-04-26T08:41:03.106Z,6949.71
2023-04-26T08:42:03.079Z,7450.98
2023-04-26T08:43:03.052Z,7600.00
2023-04-26T08:44:03.131Z,8018.09
2023-04-26T08:45:03.056Z,8553.05
2023-04-26T08:46:03.105Z,8714.17
2023-04-26T08:47:03.025Z,8338.56
2023-04-26T08:48:04.660Z,8248.06
2023-04-26T08:49:03.049Z,7840.83
2023-04-26T08:50:03.026Z,7829.29
2023-04-26T08:51:03.006Z,8358.21
2023-04-26T08:52:03.012Z,8911.22
2023-04-26T08:53:03.007Z,9517.00
2023-04-26T08:54:04.715Z,9743.59
2023-04-26T08:55:02.952Z,9797.42
2023-04-26T08:56:02.944Z,9971.88
2023-04-26T08:57:02.933Z,9971.88
2023-04-26T08:58:02.917Z,9851.85
2023-04-26T08:59:02.942Z,9628.96
2023-04-26T09:00:02.898Z,9252.17
2023-04-26T09:01:02.901Z,8888.89
2023-04-26T09:02:03.128Z,8431.06
2023-04-26T09:03:03.005Z,8286.60
2023-04-26T09:04:02.988Z,8424.39
2023-04-26T09:05:03.121Z,8391.17
2023-04-26T09:06:04.427Z,8417.72
2023-04-26T09:07:02.839Z,8178.33
2023-04-26T09:08:02.841Z,8060.61
2023-04-26T09:09:02.837Z,8293.06
2023-04-26T09:10:02.791Z,8800.66
2023-04-26T09:11:02.798Z,9148.75
2023-04-26T09:12:02.792Z,9440.99
2023-04-26T09:13:02.766Z,9761.47
2023-04-26T09:14:02.910Z,10056.71
2023-04-26T09:15:02.752Z,10172.08
2023-04-26T09:16:04.824Z,10075.76
2023-04-26T09:17:02.732Z,10123.69
2023-04-26T09:18:02.810Z,10715.00
2023-04-26T09:19:02.715Z,10066.22
2023-04-26T09:20:02.710Z,9699.18
2023-04-26T09:21:02.743Z,9525.51
2023-04-26T09:22:02.676Z,9542.60
2023-04-26T09:23:02.684Z,10300.10
2023-04-26T09:24:02.661Z,10587.07
2023-04-26T09:25:02.670Z,10957.78
2023-04-26T09:26:02.629Z,10901.64
2023-04-26T09:27:02.636Z,10758.34
2023-04-26T09:28:02.653Z,10890.48
2023-04-26T09:29:02.610Z,11590.41
2023-04-26T09:30:02.619Z,11928.25
2023-04-26T09:31:02.601Z,12773.11
2023-04-26T09:32:02.631Z,13007.34
2023-04-26T09:33:02.607Z,13007.34
2023-04-26T09:34:02.549Z,13007.34
2023-04-26T09:35:02.569Z,13007.34
2023-04-26T09:36:02.542Z,13007.34
2023-04-26T09:37:02.540Z,13007.34
2023-04-26T09:38:08.667Z,13007.34
2023-04-26T09:39:02.518Z,13007.34
2023-04-26T09:40:02.505Z,13007.34
2023-04-26T09:41:02.499Z,13007.34
2023-04-26T09:42:02.479Z,13007.34
2023-04-26T09:43:02.462Z,13007.34
2023-04-26T09:44:02.492Z,11404.07
2023-04-26T09:45:02.464Z,11552.66
2023-04-26T09:46:02.445Z,12132.27
2023-04-26T09:47:02.546Z,13007.34
2023-04-26T09:48:02.480Z,12944.04
2023-04-26T09:49:02.420Z,12146.12
2023-04-26T09:50:02.422Z,11782.95
2023-04-26T09:51:02.380Z,11848.55
2023-04-26T09:52:02.416Z,12022.60
2023-04-26T09:53:02.385Z,11928.25
2023-04-26T09:54:02.364Z,11914.89
2023-04-26T09:55:02.365Z,12357.72
2023-04-26T09:56:02.341Z,12488.26
2023-04-26T09:57:02.324Z,12944.04
2023-04-26T09:58:02.311Z,12788.46
2023-04-26T09:59:02.314Z,12666.67
2023-04-26T10:00:02.305Z,12517.65
2023-04-26T10:01:02.514Z,12547.17
2023-04-26T10:02:02.298Z,12912.62
2023-04-26T10:03:02.370Z,13007.34
2023-04-26T10:04:02.422Z,13007.34
2023-04-26T10:05:02.405Z,13007.34
2023-04-26T10:06:02.240Z,13007.34
2023-04-26T10:07:02.235Z,13007.34
2023-04-26T10:08:02.226Z,13007.34
2023-04-26T10:09:02.250Z,13007.34
2023-04-26T10:10:02.196Z,13007.34
2023-04-26T10:11:02.235Z,13007.34
2023-04-26T10:12:02.174Z,13007.34
2023-04-26T10:13:02.163Z,13007.34
2023-04-26T10:14:02.154Z,13007.34
2023-04-26T10:15:02.154Z,13007.34
2023-04-26T10:16:02.397Z,12865.78
2023-04-26T10:17:02.253Z,12215.84
2023-04-26T10:18:02.145Z,11796.01
2023-04-26T10:19:02.206Z,11769.91
2023-04-26T10:20:02.088Z,11756.91
2023-04-26T10:21:02.078Z,11615.72
2023-04-26T10:22:02.084Z,10736.63
2023-04-26T10:23:02.071Z,10545.09
2023-04-26T10:24:02.081Z,10441.61
2023-04-26T10:25:02.035Z,10890.48
2023-04-26T10:26:02.023Z,11247.36
2023-04-26T10:27:02.036Z,10846.08
2023-04-26T10:28:02.011Z,10946.50
2023-04-26T10:29:03.355Z,10857.14
2023-04-26T10:30:01.994Z,11404.07
2023-04-26T10:31:01.982Z,11552.66
2023-04-26T10:32:02.202Z,11094.89
2023-04-26T10:33:02.011Z,10991.74
2023-04-26T10:34:01.964Z,11048.81
2023-04-26T10:35:01.963Z,11025.91
2023-04-26T10:36:01.939Z,11490.28
2023-04-26T10:37:01.921Z,11307.12
2023-04-26T10:38:01.988Z,11271.19
2023-04-26T10:39:01.928Z,11453.18
2023-04-26T10:40:01.889Z,11453.18
2023-04-26T10:41:01.891Z,11106.47
2023-04-26T10:42:01.891Z,10640.00
2023-04-26T10:43:01.905Z,10650.65
2023-04-26T10:44:01.893Z,10791.08
2023-04-26T10:45:01.840Z,11247.36
2023-04-26T10:46:01.914Z,11692.31
2023-04-26T10:47:01.871Z,11928.25
2023-04-26T10:48:01.872Z,12696.90
2023-04-26T10:49:01.811Z,13007.34
2023-04-26T10:50:03.643Z,13007.34
2023-04-26T10:51:02.174Z,13007.34
2023-04-26T10:52:01.764Z,13007.34
2023-04-26T10:53:01.814Z,13007.34
2023-04-26T10:54:01.755Z,13007.34
2023-04-26T10:55:01.738Z,12727.27
2023-04-26T10:56:01.748Z,11848.55
2023-04-26T10:57:01.724Z,11440.86
2023-04-26T10:58:01.721Z,11515.15
2023-04-26T10:59:01.701Z,11404.07
2023-04-26T11:00:01.706Z,11428.57
2023-04-26T11:01:01.785Z,10835.03
2023-04-26T11:02:01.693Z,10330.10
2023-04-26T11:03:01.713Z,9699.18
2023-04-26T11:04:01.848Z,9252.17
2023-04-26T11:05:01.782Z,8800.66
2023-04-26T11:06:01.625Z,7671.23
2023-04-26T11:07:01.648Z,7721.33
2023-04-26T11:08:01.620Z,8273.72
2023-04-26T11:09:01.616Z,8657.45
2023-04-26T11:10:01.605Z,8505.20
2023-04-26T11:11:01.628Z,9039.93
2023-04-26T11:12:01.578Z,9172.41
2023-04-26T11:13:01.589Z,9466.19
2023-04-26T11:14:01.543Z,9333.33
2023-04-26T11:15:01.536Z,9117.39
2023-04-26T11:16:01.549Z,9032.26
2023-04-26T11:17:01.530Z,9252.17
2023-04-26T11:18:01.557Z,9244.13
2023-04-26T11:19:01.495Z,9620.25
2023-04-26T11:20:01.509Z,9542.60
2023-04-26T11:21:01.509Z,9542.60
2023-04-26T11:22:01.463Z,9260.23
2023-04-26T11:23:01.466Z,9551.17
2023-04-26T11:24:01.456Z,10240.62
2023-04-26T11:25:01.467Z,11037.34
2023-04-26T11:26:01.460Z,10924.03
2023-04-26T11:27:01.429Z,10846.08
2023-04-26T11:28:01.399Z,10682.73
2023-04-26T11:29:01.398Z,11428.57
2023-04-26T11:30:01.381Z,11995.49
2023-04-26T11:31:01.442Z,11888.27
2023-04-26T11:32:01.381Z,11565.22
2023-04-26T11:33:01.416Z,11404.07
2023-04-26T11:34:01.349Z,10935.25
2023-04-26T11:35:01.355Z,10650.65
2023-04-26T11:36:01.331Z,10094.88
2023-04-26T11:37:01.353Z,9761.47
2023-04-26T11:38:01.323Z,10421.16
2023-04-26T11:39:01.300Z,10360.27
2023-04-26T11:40:01.293Z,10191.57
2023-04-26T11:41:01.272Z,10380.49
2023-04-26T11:42:01.295Z,10360.27
2023-04-26T11:43:01.259Z,11037.34
2023-04-26T11:44:01.351Z,10912.82
2023-04-26T11:45:01.235Z,10534.65
2023-04-26T11:46:01.218Z,10846.08
2023-04-26T11:47:01.303Z,12229.88
2023-04-26T11:48:01.285Z,12696.90
2023-04-26T11:49:01.222Z,13007.34
2023-04-26T11:50:01.189Z,13007.34
2023-04-26T11:51:01.174Z,13007.34
2023-04-26T11:52:01.159Z,13007.34
2023-04-26T11:53:01.150Z,13007.34
2023-04-26T11:54:01.143Z,13007.34
2023-04-26T11:55:01.154Z,13007.34
2023-04-26T11:56:01.139Z,13007.34
2023-04-26T11:57:01.115Z,13007.34
2023-04-26T11:58:01.105Z,13007.34
2023-04-26T11:59:01.108Z,12912.62
2023-04-26T12:00:01.092Z,12959.81
2023-04-26T12:01:01.063Z,13007.34
2023-04-26T12:02:01.084Z,12881.36
2023-04-26T12:03:01.260Z,12104.66
2023-04-26T12:04:01.163Z,11835.37
2023-04-26T12:05:01.235Z,12329.09
2023-04-26T12:06:01.045Z,12959.81
2023-04-26T12:07:01.007Z,13007.34
2023-04-26T12:08:01.031Z,13007.34
2023-04-26T12:09:01.038Z,13007.34
2023-04-26T12:10:01.191Z,13007.34
2023-04-26T12:11:01.057Z,13007.34
2023-04-26T12:12:00.976Z,13007.34
2023-04-26T12:13:00.977Z,13007.34
2023-04-26T12:14:00.937Z,13007.34